sensor_id;sensor_type;location;lat;lon;timestamp;pressure;altitude;pressure_sealevel;temperature;humidity
19751;BME280;4663;49.120;9.730;2023-05-02T00:00:46;98117.47;;;8.69;90.61
19751;BME280;4663;49.120;9.730;2023-05-02T00:03:12;98119.00;;;8.71;90.42
19751;BME280;4663;49.120;9.730;2023-05-02T00:05:37;98112.34;;;8.85;90.15
19751;BME280;4663;49.120;9.730;2023-05-02T00:08:03;98117.06;;;8.64;91.61
19751;BME280;4663;49.120;9.730;2023-05-02T00:10:29;98115.59;;;8.41;92.03
19751;BME280;4663;49.120;9.730;2023-05-02T00:12:54;98124.03;;;8.37;92.55
19751;BME280;4663;49.120;9.730;2023-05-02T00:15:20;98113.19;;;8.38;92.01
19751;BME280;4663;49.120;9.730;2023-05-02T00:17:45;98115.28;;;8.44;91.88
19751;BME280;4663;49.120;9.730;2023-05-02T00:20:11;98123.69;;;8.69;91.37
19751;BME280;4663;49.120;9.730;2023-05-02T00:22:37;98122.41;;;8.64;91.20
19751;BME280;4663;49.120;9.730;2023-05-02T00:25:03;98113.84;;;8.50;90.83
19751;BME280;4663;49.120;9.730;2023-05-02T00:27:29;98115.28;;;8.44;90.90
19751;BME280;4663;49.120;9.730;2023-05-02T00:29:56;98113.63;;;8.33;92.05
19751;BME280;4663;49.120;9.730;2023-05-02T00:32:22;98105.41;;;8.55;90.58
19751;BME280;4663;49.120;9.730;2023-05-02T00:34:47;98108.78;;;8.57;90.09
19751;BME280;4663;49.120;9.730;2023-05-02T00:37:13;98112.66;;;8.15;90.79
19751;BME280;4663;49.120;9.730;2023-05-02T00:39:38;98113.66;;;8.04;92.13
19751;BME280;4663;49.120;9.730;2023-05-02T00:42:03;98115.19;;;7.96;92.75
19751;BME280;4663;49.120;9.730;2023-05-02T00:44:29;98114.78;;;8.11;92.41
19751;BME280;4663;49.120;9.730;2023-05-02T00:46:55;98115.19;;;8.06;93.39
19751;BME280;4663;49.120;9.730;2023-05-02T00:49:21;98113.09;;;7.90;93.40
19751;BME280;4663;49.120;9.730;2023-05-02T00:51:46;98113.91;;;8.20;91.50
19751;BME280;4663;49.120;9.730;2023-05-02T00:54:12;98122.06;;;8.19;91.54
19751;BME280;4663;49.120;9.730;2023-05-02T00:56:41;98121.38;;;8.17;91.54
19751;BME280;4663;49.120;9.730;2023-05-02T00:59:07;98123.50;;;8.13;91.62
19751;BME280;4663;49.120;9.730;2023-05-02T01:10:48;98118.97;;;8.24;89.97
19751;BME280;4663;49.120;9.730;2023-05-02T01:13:21;98119.53;;;8.37;89.44
19751;BME280;4663;49.120;9.730;2023-05-02T01:15:50;98113.88;;;8.40;89.16
19751;BME280;4663;49.120;9.730;2023-05-02T01:18:20;98121.94;;;8.11;90.02
19751;BME280;4663;49.120;9.730;2023-05-02T01:20:51;98135.59;;;7.78;91.69
19751;BME280;4663;49.120;9.730;2023-05-02T01:23:45;98139.09;;;7.88;91.50
19751;BME280;4663;49.120;9.730;2023-05-02T01:26:29;98137.16;;;8.00;90.16
19751;BME280;4663;49.120;9.730;2023-05-02T01:29:00;98135.88;;;8.14;90.22
19751;BME280;4663;49.120;9.730;2023-05-02T01:31:30;98132.94;;;8.07;90.71
19751;BME280;4663;49.120;9.730;2023-05-02T01:33:59;98142.47;;;8.20;90.38
19751;BME280;4663;49.120;9.730;2023-05-02T01:36:28;98146.97;;;8.09;90.66
19751;BME280;4663;49.120;9.730;2023-05-02T01:38:55;98150.78;;;7.97;90.99
19751;BME280;4663;49.120;9.730;2023-05-02T01:41:24;98144.00;;;7.73;92.90
19751;BME280;4663;49.120;9.730;2023-05-02T01:43:50;98149.91;;;7.77;93.45
19751;BME280;4663;49.120;9.730;2023-05-02T01:46:17;98147.69;;;7.82;93.29
19751;BME280;4663;49.120;9.730;2023-05-02T01:48:45;98147.09;;;7.88;92.46
19751;BME280;4663;49.120;9.730;2023-05-02T01:51:14;98153.00;;;7.72;94.48
19751;BME280;4663;49.120;9.730;2023-05-02T01:53:43;98152.16;;;7.72;93.74
19751;BME280;4663;49.120;9.730;2023-05-02T01:56:09;98154.69;;;7.63;93.70
19751;BME280;4663;49.120;9.730;2023-05-02T01:58:35;98153.66;;;7.54;93.86
19751;BME280;4663;49.120;9.730;2023-05-02T02:01:01;98151.47;;;7.69;92.50
19751;BME280;4663;49.120;9.730;2023-05-02T02:03:28;98159.84;;;7.45;93.65
19751;BME280;4663;49.120;9.730;2023-05-02T02:05:55;98158.31;;;7.52;93.58
19751;BME280;4663;49.120;9.730;2023-05-02T02:08:22;98157.38;;;7.32;93.75
19751;BME280;4663;49.120;9.730;2023-05-02T02:10:58;98167.47;;;7.60;94.36
19751;BME280;4663;49.120;9.730;2023-05-02T02:13:28;98162.56;;;7.75;92.55
19751;BME280;4663;49.120;9.730;2023-05-02T02:15:58;98160.31;;;7.80;91.08
19751;BME280;4663;49.120;9.730;2023-05-02T02:18:28;98159.19;;;7.73;91.10
19751;BME280;4663;49.120;9.730;2023-05-02T02:20:54;98166.47;;;7.51;92.33
19751;BME280;4663;49.120;9.730;2023-05-02T02:23:21;98168.03;;;7.63;91.73
19751;BME280;4663;49.120;9.730;2023-05-02T02:25:49;98164.53;;;7.73;90.81
19751;BME280;4663;49.120;9.730;2023-05-02T02:28:15;98174.66;;;7.69;91.36
19751;BME280;4663;49.120;9.730;2023-05-02T02:30:40;98176.22;;;7.40;93.41
19751;BME280;4663;49.120;9.730;2023-05-02T02:33:05;98178.13;;;7.50;92.96
19751;BME280;4663;49.120;9.730;2023-05-02T02:35:36;98182.38;;;7.31;94.13
19751;BME280;4663;49.120;9.730;2023-05-02T02:38:14;98185.84;;;7.53;93.67
19751;BME280;4663;49.120;9.730;2023-05-02T02:41:12;98187.84;;;7.29;93.27
19751;BME280;4663;49.120;9.730;2023-05-02T02:44:03;98187.25;;;7.57;91.87
19751;BME280;4663;49.120;9.730;2023-05-02T02:55:15;98201.31;;;7.59;92.18
19751;BME280;4663;49.120;9.730;2023-05-02T03:00:33;98204.69;;;7.61;91.91
19751;BME280;4663;49.120;9.730;2023-05-02T03:02:59;98212.88;;;7.69;90.94
19751;BME280;4663;49.120;9.730;2023-05-02T03:05:25;98212.84;;;7.50;92.53
19751;BME280;4663;49.120;9.730;2023-05-02T03:07:51;98210.47;;;7.56;92.49
19751;BME280;4663;49.120;9.730;2023-05-02T03:10:17;98216.34;;;7.60;92.25
19751;BME280;4663;49.120;9.730;2023-05-02T03:12:42;98228.25;;;7.46;94.06
19751;BME280;4663;49.120;9.730;2023-05-02T03:17:48;98227.34;;;7.77;93.57
19751;BME280;4663;49.120;9.730;2023-05-02T03:20:13;98222.00;;;7.67;92.58
19751;BME280;4663;49.120;9.730;2023-05-02T03:22:39;98225.63;;;7.56;93.77
19751;BME280;4663;49.120;9.730;2023-05-02T03:25:04;98231.66;;;7.48;94.58
19751;BME280;4663;49.120;9.730;2023-05-02T03:27:30;98236.69;;;7.51;94.78
19751;BME280;4663;49.120;9.730;2023-05-02T03:29:56;98243.09;;;7.39;94.61
19751;BME280;4663;49.120;9.730;2023-05-02T03:32:21;98242.09;;;7.71;93.79
19751;BME280;4663;49.120;9.730;2023-05-02T03:34:47;98239.13;;;7.64;92.51
19751;BME280;4663;49.120;9.730;2023-05-02T03:37:12;98238.16;;;7.34;93.56
19751;BME280;4663;49.120;9.730;2023-05-02T03:39:37;98245.88;;;7.37;94.79
19751;BME280;4663;49.120;9.730;2023-05-02T03:42:04;98250.53;;;7.66;93.01
19751;BME280;4663;49.120;9.730;2023-05-02T03:44:29;98247.97;;;7.55;92.93
19751;BME280;4663;49.120;9.730;2023-05-02T03:46:55;98248.56;;;7.68;92.39
19751;BME280;4663;49.120;9.730;2023-05-02T03:49:20;98248.34;;;7.91;91.85
19751;BME280;4663;49.120;9.730;2023-05-02T03:51:46;98245.53;;;7.93;91.55
19751;BME280;4663;49.120;9.730;2023-05-02T03:54:11;98254.09;;;7.96;91.24
19751;BME280;4663;49.120;9.730;2023-05-02T03:56:36;98259.31;;;7.98;92.42
19751;BME280;4663;49.120;9.730;2023-05-02T03:59:03;98266.25;;;7.60;93.86
19751;BME280;4663;49.120;9.730;2023-05-02T04:01:28;98272.06;;;7.75;93.97
19751;BME280;4663;49.120;9.730;2023-05-02T04:03:54;98265.22;;;7.92;92.06
19751;BME280;4663;49.120;9.730;2023-05-02T04:06:19;98271.97;;;7.86;92.26
19751;BME280;4663;49.120;9.730;2023-05-02T04:08:45;98266.94;;;8.03;91.43
19751;BME280;4663;49.120;9.730;2023-05-02T04:11:11;98276.34;;;8.07;91.69
19751;BME280;4663;49.120;9.730;2023-05-02T04:13:36;98281.78;;;7.86;92.42
19751;BME280;4663;49.120;9.730;2023-05-02T04:16:01;98273.88;;;7.74;93.82
19751;BME280;4663;49.120;9.730;2023-05-02T04:18:28;98277.81;;;7.70;93.60
19751;BME280;4663;49.120;9.730;2023-05-02T04:20:53;98283.16;;;7.70;94.22
19751;BME280;4663;49.120;9.730;2023-05-02T04:23:19;98282.16;;;7.71;94.69
19751;BME280;4663;49.120;9.730;2023-05-02T04:25:52;98284.53;;;7.64;93.90
19751;BME280;4663;49.120;9.730;2023-05-02T04:28:18;98291.00;;;7.62;94.45
19751;BME280;4663;49.120;9.730;2023-05-02T04:30:44;98281.94;;;7.53;94.68
19751;BME280;4663;49.120;9.730;2023-05-02T04:33:09;98288.59;;;7.59;94.76
19751;BME280;4663;49.120;9.730;2023-05-02T04:35:38;98291.03;;;7.72;94.89
19751;BME280;4663;49.120;9.730;2023-05-02T04:38:04;98288.25;;;7.83;94.16
19751;BME280;4663;49.120;9.730;2023-05-02T04:40:29;98289.66;;;7.87;93.02
19751;BME280;4663;49.120;9.730;2023-05-02T04:42:55;98299.44;;;7.67;94.08
19751;BME280;4663;49.120;9.730;2023-05-02T04:45:20;98310.31;;;7.85;94.83
19751;BME280;4663;49.120;9.730;2023-05-02T04:47:45;98310.63;;;7.82;94.33
19751;BME280;4663;49.120;9.730;2023-05-02T04:50:11;98303.44;;;7.92;93.66
19751;BME280;4663;49.120;9.730;2023-05-02T04:52:36;98298.00;;;8.04;92.99
19751;BME280;4663;49.120;9.730;2023-05-02T04:55:01;98300.97;;;8.11;92.64
19751;BME280;4663;49.120;9.730;2023-05-02T04:57:27;98300.69;;;8.14;94.00
19751;BME280;4663;49.120;9.730;2023-05-02T04:59:52;98304.44;;;7.91;94.01
19751;BME280;4663;49.120;9.730;2023-05-02T05:02:17;98312.34;;;8.03;93.99
19751;BME280;4663;49.120;9.730;2023-05-02T05:04:43;98309.09;;;7.89;94.69
19751;BME280;4663;49.120;9.730;2023-05-02T05:07:09;98311.34;;;7.94;95.09
19751;BME280;4663;49.120;9.730;2023-05-02T05:09:35;98305.78;;;8.17;95.04
19751;BME280;4663;49.120;9.730;2023-05-02T05:12:01;98321.28;;;8.23;94.88
19751;BME280;4663;49.120;9.730;2023-05-02T05:14:26;98317.59;;;8.14;94.89
19751;BME280;4663;49.120;9.730;2023-05-02T05:16:51;98332.75;;;8.14;95.79
19751;BME280;4663;49.120;9.730;2023-05-02T05:19:17;98333.22;;;8.29;95.44
19751;BME280;4663;49.120;9.730;2023-05-02T05:21:42;98336.75;;;8.29;94.63
19751;BME280;4663;49.120;9.730;2023-05-02T05:24:07;98344.22;;;8.45;95.65
19751;BME280;4663;49.120;9.730;2023-05-02T05:26:33;98346.47;;;8.60;94.39
19751;BME280;4663;49.120;9.730;2023-05-02T05:28:58;98355.09;;;8.73;93.65
19751;BME280;4663;49.120;9.730;2023-05-02T05:31:24;98358.75;;;8.92;93.86
19751;BME280;4663;49.120;9.730;2023-05-02T05:33:49;98368.31;;;8.45;93.64
19751;BME280;4663;49.120;9.730;2023-05-02T05:36:14;98367.47;;;8.75;93.34
19751;BME280;4663;49.120;9.730;2023-05-02T05:38:40;98376.22;;;8.67;92.67
19751;BME280;4663;49.120;9.730;2023-05-02T05:41:06;98378.16;;;8.65;92.50
19751;BME280;4663;49.120;9.730;2023-05-02T05:43:35;98378.03;;;8.86;92.31
19751;BME280;4663;49.120;9.730;2023-05-02T05:46:00;98386.47;;;8.81;91.99
19751;BME280;4663;49.120;9.730;2023-05-02T05:48:26;98388.47;;;8.79;92.76
19751;BME280;4663;49.120;9.730;2023-05-02T05:50:51;98390.56;;;9.05;92.32
19751;BME280;4663;49.120;9.730;2023-05-02T05:53:17;98400.63;;;9.13;92.78
19751;BME280;4663;49.120;9.730;2023-05-02T05:55:43;98397.47;;;9.37;91.90
19751;BME280;4663;49.120;9.730;2023-05-02T05:58:09;98396.28;;;9.60;91.64
19751;BME280;4663;49.120;9.730;2023-05-02T06:00:35;98390.81;;;9.52;91.30
19751;BME280;4663;49.120;9.730;2023-05-02T06:03:00;98393.97;;;9.47;91.58
19751;BME280;4663;49.120;9.730;2023-05-02T06:05:26;98409.66;;;9.70;92.48
19751;BME280;4663;49.120;9.730;2023-05-02T06:07:51;98402.03;;;9.85;92.14
19751;BME280;4663;49.120;9.730;2023-05-02T06:10:17;98399.72;;;10.00;92.48
19751;BME280;4663;49.120;9.730;2023-05-02T06:12:42;98401.13;;;9.94;92.32
19751;BME280;4663;49.120;9.730;2023-05-02T06:15:07;98410.72;;;9.97;92.71
19751;BME280;4663;49.120;9.730;2023-05-02T06:17:33;98410.19;;;9.93;93.01
19751;BME280;4663;49.120;9.730;2023-05-02T06:19:58;98413.28;;;10.26;92.24
19751;BME280;4663;49.120;9.730;2023-05-02T06:22:24;98408.44;;;10.40;91.48
19751;BME280;4663;49.120;9.730;2023-05-02T06:24:49;98413.16;;;10.56;91.51
19751;BME280;4663;49.120;9.730;2023-05-02T06:27:14;98431.56;;;10.69;91.55
19751;BME280;4663;49.120;9.730;2023-05-02T06:29:40;98427.59;;;10.45;90.77
19751;BME280;4663;49.120;9.730;2023-05-02T06:32:05;98424.13;;;10.63;91.56
19751;BME280;4663;49.120;9.730;2023-05-02T06:34:31;98424.44;;;10.60;91.29
19751;BME280;4663;49.120;9.730;2023-05-02T06:37:01;98430.94;;;10.47;91.80
19751;BME280;4663;49.120;9.730;2023-05-02T06:39:26;98424.69;;;10.66;92.02
19751;BME280;4663;49.120;9.730;2023-05-02T06:41:57;98434.13;;;10.89;90.85
19751;BME280;4663;49.120;9.730;2023-05-02T06:44:23;98437.97;;;10.86;91.02
19751;BME280;4663;49.120;9.730;2023-05-02T06:46:48;98440.81;;;10.85;91.19
19751;BME280;4663;49.120;9.730;2023-05-02T06:49:14;98431.28;;;10.72;91.55
19751;BME280;4663;49.120;9.730;2023-05-02T06:51:42;98443.50;;;11.03;90.49
19751;BME280;4663;49.120;9.730;2023-05-02T06:54:08;98449.09;;;11.10;90.70
19751;BME280;4663;49.120;9.730;2023-05-02T06:56:34;98445.03;;;11.24;89.96
19751;BME280;4663;49.120;9.730;2023-05-02T06:58:59;98450.09;;;11.27;89.51
19751;BME280;4663;49.120;9.730;2023-05-02T07:01:25;98462.44;;;11.38;89.86
19751;BME280;4663;49.120;9.730;2023-05-02T07:03:50;98462.44;;;11.38;89.37
19751;BME280;4663;49.120;9.730;2023-05-02T07:06:19;98468.88;;;11.45;90.14
19751;BME280;4663;49.120;9.730;2023-05-02T07:08:45;98467.56;;;11.49;91.17
19751;BME280;4663;49.120;9.730;2023-05-02T07:11:11;98472.84;;;11.77;90.53
19751;BME280;4663;49.120;9.730;2023-05-02T07:13:36;98469.16;;;11.78;89.93
19751;BME280;4663;49.120;9.730;2023-05-02T07:16:02;98473.50;;;11.98;89.25
19751;BME280;4663;49.120;9.730;2023-05-02T07:18:27;98474.25;;;12.16;88.66
19751;BME280;4663;49.120;9.730;2023-05-02T07:20:52;98473.59;;;12.14;88.13
19751;BME280;4663;49.120;9.730;2023-05-02T07:23:19;98480.84;;;12.22;88.76
19751;BME280;4663;49.120;9.730;2023-05-02T07:25:46;98481.34;;;12.17;88.16
19751;BME280;4663;49.120;9.730;2023-05-02T07:28:11;98481.94;;;12.38;88.50
19751;BME280;4663;49.120;9.730;2023-05-02T07:30:37;98482.84;;;12.46;87.79
19751;BME280;4663;49.120;9.730;2023-05-02T07:33:02;98483.75;;;12.64;87.38
19751;BME280;4663;49.120;9.730;2023-05-02T07:35:28;98484.50;;;12.82;86.95
19751;BME280;4663;49.120;9.730;2023-05-02T07:37:53;98490.13;;;12.97;86.79
19751;BME280;4663;49.120;9.730;2023-05-02T07:40:18;98482.44;;;12.76;85.28
19751;BME280;4663;49.120;9.730;2023-05-02T07:42:44;98480.78;;;12.83;86.14
19751;BME280;4663;49.120;9.730;2023-05-02T07:45:10;98472.03;;;12.90;85.05
19751;BME280;4663;49.120;9.730;2023-05-02T07:47:36;98475.72;;;12.80;84.91
19751;BME280;4663;49.120;9.730;2023-05-02T07:50:02;98486.50;;;12.80;86.42
19751;BME280;4663;49.120;9.730;2023-05-02T07:52:31;98488.63;;;13.03;85.67
19751;BME280;4663;49.120;9.730;2023-05-02T07:54:56;98482.22;;;13.04;85.86
19751;BME280;4663;49.120;9.730;2023-05-02T07:57:21;98497.75;;;13.19;85.27
19751;BME280;4663;49.120;9.730;2023-05-02T07:59:48;98497.28;;;13.48;84.30
19751;BME280;4663;49.120;9.730;2023-05-02T08:02:13;98491.34;;;13.36;83.95
19751;BME280;4663;49.120;9.730;2023-05-02T08:04:39;98500.47;;;13.94;85.33
19751;BME280;4663;49.120;9.730;2023-05-02T08:07:05;98497.41;;;13.97;82.97
19751;BME280;4663;49.120;9.730;2023-05-02T08:09:30;98493.34;;;14.01;81.56
19751;BME280;4663;49.120;9.730;2023-05-02T08:11:56;98501.00;;;13.56;82.13
19751;BME280;4663;49.120;9.730;2023-05-02T08:14:21;98501.81;;;13.90;81.18
19751;BME280;4663;49.120;9.730;2023-05-02T08:16:47;98497.41;;;13.97;80.08
19751;BME280;4663;49.120;9.730;2023-05-02T08:19:14;98511.88;;;14.37;80.27
19751;BME280;4663;49.120;9.730;2023-05-02T08:21:40;98500.84;;;14.96;78.98
19751;BME280;4663;49.120;9.730;2023-05-02T08:24:05;98494.44;;;14.88;77.33
19751;BME280;4663;49.120;9.730;2023-05-02T08:26:30;98497.03;;;14.82;77.48
19751;BME280;4663;49.120;9.730;2023-05-02T08:28:56;98500.75;;;15.12;76.44
19751;BME280;4663;49.120;9.730;2023-05-02T08:31:21;98511.56;;;15.21;77.09
19751;BME280;4663;49.120;9.730;2023-05-02T08:33:47;98505.66;;;15.40;74.83
19751;BME280;4663;49.120;9.730;2023-05-02T08:36:13;98503.72;;;15.49;74.23
19751;BME280;4663;49.120;9.730;2023-05-02T08:38:40;98506.59;;;14.93;74.21
19751;BME280;4663;49.120;9.730;2023-05-02T08:41:17;98516.38;;;14.94;74.73
19751;BME280;4663;49.120;9.730;2023-05-02T08:43:46;98520.72;;;14.63;75.56
19751;BME280;4663;49.120;9.730;2023-05-02T08:46:13;98525.09;;;15.12;74.81
19751;BME280;4663;49.120;9.730;2023-05-02T08:48:41;98517.50;;;14.68;73.97
19751;BME280;4663;49.120;9.730;2023-05-02T08:51:14;98531.22;;;14.98;77.12
19751;BME280;4663;49.120;9.730;2023-05-02T08:53:40;98510.06;;;15.41;74.33
19751;BME280;4663;49.120;9.730;2023-05-02T08:56:06;98518.41;;;15.32;73.18
19751;BME280;4663;49.120;9.730;2023-05-02T08:58:34;98524.69;;;15.71;73.14
19751;BME280;4663;49.120;9.730;2023-05-02T09:01:01;98528.56;;;15.91;73.49
19751;BME280;4663;49.120;9.730;2023-05-02T09:03:34;98536.13;;;16.19;71.81
19751;BME280;4663;49.120;9.730;2023-05-02T09:08:31;98519.44;;;16.76;69.02
19751;BME280;4663;49.120;9.730;2023-05-02T09:10:57;98527.84;;;16.81;68.22
19751;BME280;4663;49.120;9.730;2023-05-02T09:13:44;98518.81;;;16.29;68.68
19751;BME280;4663;49.120;9.730;2023-05-02T09:16:11;98530.09;;;16.32;68.87
19751;BME280;4663;49.120;9.730;2023-05-02T09:18:41;98529.41;;;16.15;68.94
19751;BME280;4663;49.120;9.730;2023-05-02T09:21:10;98532.22;;;16.98;69.71
19751;BME280;4663;49.120;9.730;2023-05-02T09:23:41;98528.19;;;16.93;69.18
19751;BME280;4663;49.120;9.730;2023-05-02T09:28:54;98536.06;;;16.04;69.18
19751;BME280;4663;49.120;9.730;2023-05-02T09:31:24;98533.19;;;15.04;70.55
19751;BME280;4663;49.120;9.730;2023-05-02T09:33:53;98531.84;;;15.87;70.94
19751;BME280;4663;49.120;9.730;2023-05-02T09:36:20;98537.59;;;16.07;70.57
19751;BME280;4663;49.120;9.730;2023-05-02T09:38:47;98537.66;;;16.22;71.54
19751;BME280;4663;49.120;9.730;2023-05-02T09:41:13;98537.09;;;16.72;69.94
19751;BME280;4663;49.120;9.730;2023-05-02T09:43:39;98541.47;;;16.73;68.69
19751;BME280;4663;49.120;9.730;2023-05-02T09:46:09;98538.13;;;17.38;68.08
19751;BME280;4663;49.120;9.730;2023-05-02T09:48:55;98554.13;;;17.55;69.48
19751;BME280;4663;49.120;9.730;2023-05-02T09:51:22;98533.03;;;17.72;67.06
19751;BME280;4663;49.120;9.730;2023-05-02T09:53:48;98542.34;;;17.04;68.83
19751;BME280;4663;49.120;9.730;2023-05-02T09:56:14;98553.91;;;16.67;70.04
19751;BME280;4663;49.120;9.730;2023-05-02T09:58:40;98532.88;;;17.15;67.11
19751;BME280;4663;49.120;9.730;2023-05-02T10:01:05;98549.19;;;18.02;68.98
19751;BME280;4663;49.120;9.730;2023-05-02T10:03:35;98522.88;;;18.03;65.87
19751;BME280;4663;49.120;9.730;2023-05-02T10:06:02;98522.22;;;17.35;65.63
19751;BME280;4663;49.120;9.730;2023-05-02T10:08:32;98543.22;;;16.96;67.81
19751;BME280;4663;49.120;9.730;2023-05-02T10:10:58;98527.06;;;17.18;67.05
19751;BME280;4663;49.120;9.730;2023-05-02T10:13:25;98538.31;;;17.00;68.29
19751;BME280;4663;49.120;9.730;2023-05-02T10:16:00;98521.09;;;17.88;64.39
19751;BME280;4663;49.120;9.730;2023-05-02T10:18:45;98533.34;;;17.84;66.16
19751;BME280;4663;49.120;9.730;2023-05-02T10:21:26;98532.44;;;18.56;65.44
19751;BME280;4663;49.120;9.730;2023-05-02T10:23:52;98520.03;;;18.75;62.23
19751;BME280;4663;49.120;9.730;2023-05-02T10:26:18;98517.59;;;18.87;61.65
19751;BME280;4663;49.120;9.730;2023-05-02T10:28:46;98518.81;;;18.49;62.73
19751;BME280;4663;49.120;9.730;2023-05-02T10:31:13;98538.00;;;18.76;63.11
19751;BME280;4663;49.120;9.730;2023-05-02T10:33:39;98551.88;;;18.88;64.91
19751;BME280;4663;49.120;9.730;2023-05-02T10:36:07;98520.56;;;20.02;61.32
19751;BME280;4663;49.120;9.730;2023-05-02T10:38:34;98529.41;;;19.28;62.31
19751;BME280;4663;49.120;9.730;2023-05-02T10:41:16;98541.38;;;18.49;62.98
19751;BME280;4663;49.120;9.730;2023-05-02T10:43:47;98508.19;;;18.54;60.67
19751;BME280;4663;49.120;9.730;2023-05-02T10:46:33;98508.41;;;17.73;61.83
19751;BME280;4663;49.120;9.730;2023-05-02T10:49:03;98522.09;;;18.09;64.08
19751;BME280;4663;49.120;9.730;2023-05-02T10:51:30;98526.53;;;18.45;64.92
19751;BME280;4663;49.120;9.730;2023-05-02T10:59:33;98507.09;;;18.13;62.51
19751;BME280;4663;49.120;9.730;2023-05-02T11:01:59;98509.03;;;18.19;62.10
19751;BME280;4663;49.120;9.730;2023-05-02T11:04:25;98522.97;;;19.43;62.82
19751;BME280;4663;49.120;9.730;2023-05-02T11:07:16;98487.88;;;19.61;58.94
19751;BME280;4663;49.120;9.730;2023-05-02T11:09:42;98501.44;;;20.49;59.08
19751;BME280;4663;49.120;9.730;2023-05-02T11:12:07;98483.28;;;20.89;58.28
19751;BME280;4663;49.120;9.730;2023-05-02T11:19:27;98500.22;;;19.64;59.85
19751;BME280;4663;49.120;9.730;2023-05-02T11:24:51;98486.91;;;17.28;60.86
19751;BME280;4663;49.120;9.730;2023-05-02T11:29:58;98486.19;;;17.85;60.72
19751;BME280;4663;49.120;9.730;2023-05-02T11:35:28;98481.59;;;18.85;59.06
19751;BME280;4663;49.120;9.730;2023-05-02T11:37:58;98499.31;;;19.30;60.03
19751;BME280;4663;49.120;9.730;2023-05-02T11:40:25;98453.25;;;19.01;56.21
19751;BME280;4663;49.120;9.730;2023-05-02T11:42:51;98484.59;;;19.04;58.16
19751;BME280;4663;49.120;9.730;2023-05-02T11:45:17;98506.81;;;18.72;60.33
19751;BME280;4663;49.120;9.730;2023-05-02T11:47:44;98499.91;;;18.69;60.10
19751;BME280;4663;49.120;9.730;2023-05-02T11:50:11;98499.53;;;18.37;60.29
19751;BME280;4663;49.120;9.730;2023-05-02T11:52:41;98525.75;;;17.72;64.20
19751;BME280;4663;49.120;9.730;2023-05-02T11:55:10;98507.59;;;17.95;62.96
19751;BME280;4663;49.120;9.730;2023-05-02T11:57:36;98517.13;;;17.25;63.80
19751;BME280;4663;49.120;9.730;2023-05-02T12:00:02;98515.50;;;17.31;62.79
19751;BME280;4663;49.120;9.730;2023-05-02T12:02:42;98497.69;;;17.00;61.97
19751;BME280;4663;49.120;9.730;2023-05-02T12:05:09;98504.88;;;16.62;61.49
19751;BME280;4663;49.120;9.730;2023-05-02T12:10:01;98516.41;;;17.16;62.74
19751;BME280;4663;49.120;9.730;2023-05-02T12:12:27;98530.88;;;17.24;62.48
19751;BME280;4663;49.120;9.730;2023-05-02T12:14:52;98525.03;;;17.85;61.17
19751;BME280;4663;49.120;9.730;2023-05-02T12:17:18;98522.69;;;18.04;60.65
19751;BME280;4663;49.120;9.730;2023-05-02T12:19:44;98534.69;;;17.73;62.46
19751;BME280;4663;49.120;9.730;2023-05-02T12:22:10;98543.16;;;17.63;63.68
19751;BME280;4663;49.120;9.730;2023-05-02T12:24:37;98528.00;;;16.95;62.75
19751;BME280;4663;49.120;9.730;2023-05-02T12:27:13;98544.22;;;17.25;64.88
19751;BME280;4663;49.120;9.730;2023-05-02T12:29:43;98535.56;;;17.95;62.32
19751;BME280;4663;49.120;9.730;2023-05-02T12:32:10;98525.47;;;18.11;60.54
19751;BME280;4663;49.120;9.730;2023-05-02T12:34:36;98534.69;;;17.29;61.31
19751;BME280;4663;49.120;9.730;2023-05-02T12:37:02;98549.63;;;17.62;61.89
19751;BME280;4663;49.120;9.730;2023-05-02T12:39:39;98550.72;;;18.11;62.84
19751;BME280;4663;49.120;9.730;2023-05-02T12:42:15;98525.16;;;18.28;59.86
19751;BME280;4663;49.120;9.730;2023-05-02T12:44:42;98554.88;;;17.64;62.16
19751;BME280;4663;49.120;9.730;2023-05-02T12:47:13;98541.09;;;18.37;61.50
19751;BME280;4663;49.120;9.730;2023-05-02T12:49:52;98538.91;;;17.97;60.76
19751;BME280;4663;49.120;9.730;2023-05-02T12:52:48;98547.22;;;18.82;59.86
19751;BME280;4663;49.120;9.730;2023-05-02T12:55:18;98534.13;;;18.28;59.62
19751;BME280;4663;49.120;9.730;2023-05-02T12:57:44;98544.56;;;18.24;59.86
19751;BME280;4663;49.120;9.730;2023-05-02T13:00:10;98553.72;;;18.81;59.79
19751;BME280;4663;49.120;9.730;2023-05-02T13:02:35;98553.63;;;19.02;59.94
19751;BME280;4663;49.120;9.730;2023-05-02T13:05:01;98528.22;;;19.44;58.26
19751;BME280;4663;49.120;9.730;2023-05-02T13:07:26;98544.59;;;18.95;60.01
19751;BME280;4663;49.120;9.730;2023-05-02T13:09:52;98535.69;;;19.22;59.08
19751;BME280;4663;49.120;9.730;2023-05-02T13:12:17;98556.66;;;19.35;59.96
19751;BME280;4663;49.120;9.730;2023-05-02T13:14:42;98531.66;;;19.80;57.61
19751;BME280;4663;49.120;9.730;2023-05-02T13:17:08;98523.28;;;19.06;56.82
19751;BME280;4663;49.120;9.730;2023-05-02T13:19:34;98529.25;;;18.17;57.95
19751;BME280;4663;49.120;9.730;2023-05-02T13:21:59;98539.56;;;18.63;59.37
19751;BME280;4663;49.120;9.730;2023-05-02T13:24:24;98525.53;;;18.88;57.36
19751;BME280;4663;49.120;9.730;2023-05-02T13:26:50;98519.00;;;19.38;56.56
19751;BME280;4663;49.120;9.730;2023-05-02T13:29:16;98499.66;;;18.99;55.26
19751;BME280;4663;49.120;9.730;2023-05-02T13:31:41;98510.56;;;17.78;56.25
19751;BME280;4663;49.120;9.730;2023-05-02T13:34:07;98519.34;;;18.31;56.69
19751;BME280;4663;49.120;9.730;2023-05-02T13:36:32;98502.09;;;18.17;56.00
19751;BME280;4663;49.120;9.730;2023-05-02T13:38:57;98503.13;;;18.80;55.25
19751;BME280;4663;49.120;9.730;2023-05-02T13:41:23;98526.34;;;18.89;56.55
19751;BME280;4663;49.120;9.730;2023-05-02T13:43:51;98517.91;;;18.35;56.53
19751;BME280;4663;49.120;9.730;2023-05-02T13:46:16;98520.13;;;18.24;57.37
19751;BME280;4663;49.120;9.730;2023-05-02T13:48:41;98495.88;;;18.94;55.28
19751;BME280;4663;49.120;9.730;2023-05-02T13:51:07;98483.16;;;18.59;53.85
19751;BME280;4663;49.120;9.730;2023-05-02T13:53:32;98507.38;;;18.60;56.05
19751;BME280;4663;49.120;9.730;2023-05-02T13:55:58;98503.66;;;18.68;54.80
19751;BME280;4663;49.120;9.730;2023-05-02T13:58:23;98497.13;;;18.20;55.37
19751;BME280;4663;49.120;9.730;2023-05-02T14:00:49;98498.72;;;18.08;55.79
19751;BME280;4663;49.120;9.730;2023-05-02T14:03:16;98519.28;;;18.59;56.90
19751;BME280;4663;49.120;9.730;2023-05-02T14:05:41;98529.66;;;19.26;57.36